createdAt,value
2022-08-04T00:03:16.530Z,1.90
2022-08-04T00:08:45.817Z,1.83
2022-08-04T00:14:00.424Z,1.88
2022-08-04T00:19:12.542Z,1.42
2022-08-04T00:24:16.320Z,1.75
2022-08-04T00:29:17.969Z,2.08
2022-08-04T00:34:19.706Z,1.70
2022-08-04T00:39:22.615Z,1.55
2022-08-04T00:44:42.969Z,2.13
2022-08-04T00:49:55.259Z,1.75
2022-08-04T00:55:06.909Z,1.70
2022-08-04T01:00:15.672Z,2.28
2022-08-04T01:05:54.518Z,2.03
2022-08-04T01:11:11.045Z,2.00
2022-08-04T01:16:17.000Z,1.80
2022-08-04T01:21:30.560Z,2.47
2022-08-04T01:26:58.012Z,1.95
2022-08-04T01:32:03.729Z,1.77
2022-08-04T01:37:13.943Z,1.88
2022-08-04T01:42:31.863Z,1.83
2022-08-04T01:47:40.236Z,1.77
2022-08-04T01:52:46.503Z,2.15
2022-08-04T01:57:53.289Z,2.40
2022-08-04T02:02:56.746Z,1.88
2022-08-04T02:08:07.595Z,1.95
2022-08-04T02:13:49.925Z,2.40
2022-08-04T02:19:06.681Z,2.00
2022-08-04T02:24:22.548Z,2.03
2022-08-04T02:29:35.242Z,2.15
2022-08-04T02:34:48.797Z,2.47
2022-08-04T02:39:54.162Z,2.50
2022-08-04T02:44:58.688Z,2.13
2022-08-04T02:50:02.314Z,2.33
2022-08-04T02:55:09.239Z,2.88
2022-08-04T03:00:14.753Z,2.58
2022-08-04T03:05:24.537Z,1.90
2022-08-04T03:11:03.776Z,2.33
2022-08-04T03:16:38.743Z,2.30
2022-08-04T03:21:58.807Z,2.08
2022-08-04T03:27:34.382Z,1.97
2022-08-04T03:33:07.697Z,2.15
2022-08-04T03:38:34.161Z,2.28
2022-08-04T03:44:22.338Z,2.38
2022-08-04T03:49:40.817Z,2.28
2022-08-04T03:55:01.678Z,2.00
2022-08-04T04:00:21.217Z,2.17
2022-08-04T04:06:00.238Z,2.20
2022-08-04T04:11:35.382Z,1.98
2022-08-04T04:17:09.223Z,2.33
2022-08-04T04:22:22.843Z,2.55
2022-08-04T04:27:39.078Z,2.22
2022-08-04T04:32:59.742Z,2.13
2022-08-04T04:38:19.740Z,2.25
2022-08-04T04:43:51.792Z,2.50
2022-08-04T04:49:07.424Z,2.47
2022-08-04T04:54:23.457Z,2.53
2022-08-04T04:59:34.705Z,2.33
2022-08-04T05:04:51.162Z,1.88
2022-08-04T05:10:30.507Z,1.90
2022-08-04T05:15:35.590Z,2.08
2022-08-04T05:20:45.459Z,1.50
2022-08-04T05:25:59.354Z,1.50
2022-08-04T05:31:07.221Z,1.65
2022-08-04T05:36:23.413Z,1.80
2022-08-04T05:41:32.323Z,1.52
2022-08-04T05:46:54.082Z,1.75
2022-08-04T05:52:00.944Z,2.20
2022-08-04T05:57:06.355Z,1.80
2022-08-04T06:02:09.595Z,1.67
2022-08-04T06:07:11.603Z,1.60
2022-08-04T06:12:21.075Z,1.67
2022-08-04T06:18:35.447Z,1.20
2022-08-04T06:22:56.210Z,1.40
2022-08-04T06:27:58.683Z,1.80
2022-08-04T06:33:05.228Z,1.33
2022-08-04T06:38:08.657Z,1.20
2022-08-04T06:43:11.527Z,1.58
2022-08-04T06:48:16.182Z,1.70
2022-08-04T06:53:18.620Z,1.17
2022-08-04T06:58:21.942Z,1.33
2022-08-04T07:03:24.021Z,1.50
2022-08-04T07:08:25.726Z,1.67
2022-08-04T07:13:27.876Z,1.90
2022-08-04T07:18:31.978Z,1.30
2022-08-04T07:23:33.858Z,1.75
2022-08-04T07:28:35.399Z,1.65
2022-08-04T07:33:38.029Z,1.60
2022-08-04T07:38:48.756Z,1.60
2022-08-04T07:43:54.966Z,1.40
2022-08-04T07:48:58.405Z,1.60
2022-08-04T07:54:00.887Z,1.67
2022-08-04T07:59:03.449Z,2.13
2022-08-04T08:04:10.186Z,1.58
2022-08-04T08:09:14.770Z,1.30
2022-08-04T08:14:18.102Z,1.50
2022-08-04T08:19:20.654Z,1.70
2022-08-04T08:24:22.465Z,1.13
2022-08-04T08:29:29.466Z,1.30
2022-08-04T08:34:32.421Z,1.27
2022-08-04T08:39:55.444Z,1.27
2022-08-04T08:45:24.512Z,1.90
2022-08-04T08:50:56.503Z,1.60
2022-08-04T08:56:30.916Z,1.50
2022-08-04T09:01:33.264Z,1.65
2022-08-04T09:06:58.002Z,1.33
2022-08-04T09:12:25.807Z,1.25
2022-08-04T09:17:33.340Z,1.20
2022-08-04T09:22:48.053Z,1.40
2022-08-04T09:27:59.848Z,1.13
2022-08-04T09:33:18.200Z,1.30
2022-08-04T09:38:51.610Z,1.30
2022-08-04T09:44:50.547Z,1.10
2022-08-04T09:50:14.628Z,1.20
2022-08-04T09:55:54.463Z,1.27
2022-08-04T10:01:02.996Z,1.30
2022-08-04T10:06:08.821Z,1.55
2022-08-04T10:11:55.555Z,1.42
2022-08-04T10:17:27.623Z,1.60
2022-08-04T10:22:55.584Z,1.70
2022-08-04T10:28:10.325Z,1.40
2022-08-04T10:33:28.959Z,1.55
2022-08-04T10:38:32.459Z,1.10
2022-08-04T10:43:57.238Z,1.73
2022-08-04T10:49:10.262Z,1.50
2022-08-04T10:54:18.710Z,1.00
2022-08-04T10:59:45.718Z,1.05
2022-08-04T11:05:26.418Z,1.50
2022-08-04T11:10:34.554Z,1.40
2022-08-04T11:15:51.396Z,1.00
2022-08-04T11:21:07.979Z,1.05
2022-08-04T11:26:22.494Z,1.20
2022-08-04T11:31:29.785Z,1.10
2022-08-04T11:36:51.424Z,0.90
2022-08-04T11:42:04.933Z,1.25
2022-08-04T11:47:22.259Z,0.85
2022-08-04T11:52:26.349Z,1.48
2022-08-04T11:57:35.923Z,0.82
2022-08-04T12:02:49.824Z,1.42
2022-08-04T12:08:19.676Z,0.60
2022-08-04T12:13:46.288Z,0.70
2022-08-04T12:19:03.099Z,1.00
2022-08-04T12:24:21.837Z,0.90
2022-08-04T12:29:29.532Z,0.70
2022-08-04T12:34:35.139Z,0.82
2022-08-04T12:40:21.617Z,0.80
2022-08-04T12:45:10.636Z,1.13
2022-08-04T12:50:16.042Z,0.93
2022-08-04T12:55:21.130Z,1.10
2022-08-04T13:00:39.665Z,0.95
2022-08-04T13:05:44.838Z,1.13
2022-08-04T13:10:50.646Z,0.85
2022-08-04T13:16:02.948Z,0.63
2022-08-04T13:21:21.178Z,1.08
2022-08-04T13:26:43.022Z,0.73
2022-08-04T13:31:52.526Z,0.80
2022-08-04T13:36:56.242Z,1.00
2022-08-04T13:42:02.377Z,0.73
2022-08-04T13:47:16.693Z,0.90
2022-08-04T13:52:21.731Z,0.55
2022-08-04T13:57:30.505Z,0.60
2022-08-04T14:02:39.978Z,0.60
2022-08-04T14:07:47.021Z,0.60
2022-08-04T14:12:52.449Z,0.90
2022-08-04T14:17:54.527Z,0.90
2022-08-04T14:23:02.221Z,1.02
2022-08-04T14:28:04.522Z,0.63
2022-08-04T14:34:01.505Z,0.88
2022-08-04T14:38:46.370Z,0.77
2022-08-04T14:43:54.991Z,0.52
2022-08-04T14:49:10.467Z,0.60
2022-08-04T14:54:18.988Z,0.80
2022-08-04T15:04:26.341Z,0.60
2022-08-04T15:09:29.001Z,1.77
2022-08-04T15:14:37.482Z,1.23
2022-08-04T15:19:39.939Z,0.70
2022-08-04T15:24:41.396Z,0.80
2022-08-04T15:30:00.757Z,0.60
2022-08-04T15:35:09.841Z,1.00
2022-08-04T15:40:37.064Z,0.77
2022-08-04T15:51:15.172Z,0.60
2022-08-04T15:56:43.363Z,0.70
2022-08-04T16:02:29.825Z,0.73
2022-08-04T16:08:10.069Z,0.80
2022-08-04T16:13:16.849Z,0.57
2022-08-04T16:18:30.321Z,0.57
2022-08-04T16:23:59.308Z,0.70
2022-08-04T16:29:04.110Z,1.23
2022-08-04T16:34:47.939Z,0.88
2022-08-04T16:39:27.568Z,0.70
2022-08-04T16:44:52.163Z,0.50
2022-08-04T16:50:02.194Z,0.57
2022-08-04T16:55:04.041Z,0.80
2022-08-04T17:00:07.364Z,1.33
2022-08-04T17:05:39.456Z,0.80
2022-08-04T17:10:44.178Z,1.42
2022-08-04T17:15:49.761Z,0.90
2022-08-04T17:21:01.148Z,1.00
2022-08-04T17:26:20.567Z,0.93
2022-08-04T17:31:24.828Z,1.02
2022-08-04T17:36:28.987Z,1.15
2022-08-04T17:41:39.041Z,1.00
2022-08-04T17:46:48.771Z,1.00
2022-08-04T17:57:19.474Z,0.83
2022-08-04T18:02:34.848Z,1.23
2022-08-04T18:08:39.480Z,1.20
2022-08-04T18:13:13.882Z,1.02
2022-08-04T18:18:23.632Z,1.00
2022-08-04T18:23:31.983Z,1.30
2022-08-04T18:28:34.881Z,1.30
2022-08-04T18:33:39.776Z,1.50
2022-08-04T18:38:55.399Z,1.50
2022-08-04T18:43:57.759Z,1.27
2022-08-04T18:49:01.542Z,1.67
2022-08-04T18:54:03.555Z,1.50
2022-08-04T18:59:10.162Z,1.17
2022-08-04T19:04:33.336Z,1.27
2022-08-04T19:09:51.326Z,1.17
2022-08-04T19:14:58.344Z,1.10
2022-08-04T19:20:00.619Z,1.30
2022-08-04T19:25:02.099Z,1.42
2022-08-04T19:30:04.327Z,1.17
2022-08-04T19:35:06.619Z,0.98
2022-08-04T19:40:15.303Z,1.30
2022-08-04T19:45:17.153Z,1.42
2022-08-04T19:50:18.748Z,1.27
2022-08-04T19:55:36.748Z,1.52
2022-08-04T20:00:40.633Z,1.55
2022-08-04T20:05:53.418Z,1.92
2022-08-04T20:10:57.923Z,2.05
2022-08-04T20:15:59.510Z,1.70
2022-08-04T20:21:01.006Z,1.90
2022-08-04T20:26:02.659Z,1.58
2022-08-04T20:31:04.182Z,1.52
2022-08-04T20:36:06.761Z,2.28
2022-08-04T20:41:08.407Z,1.92
2022-08-04T20:46:17.831Z,1.38
2022-08-04T20:51:25.903Z,1.47
2022-08-04T20:56:33.220Z,1.85
2022-08-04T21:01:34.862Z,1.60
2022-08-04T21:06:36.667Z,1.70
2022-08-04T21:11:38.194Z,1.30
2022-08-04T21:16:55.782Z,1.90
2022-08-04T21:21:58.090Z,1.92
2022-08-04T21:27:01.879Z,1.40
2022-08-04T21:32:06.001Z,1.63
2022-08-04T21:37:11.236Z,1.30
2022-08-04T21:42:30.565Z,2.05
2022-08-04T21:47:46.716Z,1.53
2022-08-04T21:52:51.043Z,1.40
2022-08-04T21:57:54.107Z,1.20
2022-08-04T22:02:55.699Z,1.45
2022-08-04T22:07:57.151Z,1.58
2022-08-04T22:12:58.846Z,2.05
2022-08-04T22:18:04.517Z,1.90
2022-08-04T22:23:16.655Z,1.90
2022-08-04T22:28:18.812Z,2.00
2022-08-04T22:33:20.408Z,2.25
2022-08-04T22:38:38.485Z,1.95
2022-08-04T22:43:46.474Z,1.52
2022-08-04T22:48:57.065Z,1.52
2022-08-04T22:54:00.365Z,1.65
2022-08-04T22:59:03.178Z,1.42
2022-08-04T23:04:04.815Z,1.73
2022-08-04T23:09:06.265Z,1.90
2022-08-04T23:14:17.497Z,2.00
2022-08-04T23:19:19.498Z,1.40
2022-08-04T23:24:29.848Z,1.25
2022-08-04T23:29:54.422Z,1.25
2022-08-04T23:34:53.049Z,1.40
2022-08-04T23:40:15.779Z,1.58
2022-08-04T23:45:15.987Z,1.55
2022-08-04T23:50:37.416Z,1.80
2022-08-04T23:55:40.667Z,1.52
